sensor_id;sensor_type;location;lat;lon;timestamp;P1;durP1;ratioP1;P2;durP2;ratioP2
12151;SDS011;6139;51.274;7.128;2022-08-21T00:00:41;25.33;;;17.88;;
12151;SDS011;6139;51.274;7.128;2022-08-21T00:01:43;18.08;;;11.88;;
12151;SDS011;6139;51.274;7.128;2022-08-21T00:02:47;8.23;;;5.55;;
12151;SDS011;6139;51.274;7.128;2022-08-21T00:03:50;10.73;;;5.53;;
12151;SDS011;6139;51.274;7.128;2022-08-21T00:04:51;11.35;;;5.13;;
12151;SDS011;6139;51.274;7.128;2022-08-21T00:05:54;14.35;;;9.00;;
12151;SDS011;6139;51.274;7.128;2022-08-21T00:06:56;23.83;;;15.93;;
12151;SDS011;6139;51.274;7.128;2022-08-21T00:07:58;20.02;;;14.55;;
12151;SDS011;6139;51.274;7.128;2022-08-21T00:08:59;20.95;;;14.20;;
12151;SDS011;6139;51.274;7.128;2022-08-21T00:10:02;21.88;;;16.13;;
12151;SDS011;6139;51.274;7.128;2022-08-21T00:11:04;17.13;;;13.07;;
12151;SDS011;6139;51.274;7.128;2022-08-21T00:12:07;22.77;;;12.63;;
12151;SDS011;6139;51.274;7.128;2022-08-21T00:13:08;16.88;;;11.98;;
12151;SDS011;6139;51.274;7.128;2022-08-21T00:14:11;15.93;;;10.48;;
12151;SDS011;6139;51.274;7.128;2022-08-21T00:15:13;23.58;;;14.23;;
12151;SDS011;6139;51.274;7.128;2022-08-21T00:16:17;15.45;;;9.98;;
12151;SDS011;6139;51.274;7.128;2022-08-21T00:17:19;11.73;;;7.75;;
12151;SDS011;6139;51.274;7.128;2022-08-21T00:18:22;9.35;;;5.47;;
12151;SDS011;6139;51.274;7.128;2022-08-21T00:19:23;8.43;;;4.80;;
12151;SDS011;6139;51.274;7.128;2022-08-21T00:20:25;6.30;;;3.90;;
12151;SDS011;6139;51.274;7.128;2022-08-21T00:21:27;5.22;;;3.83;;
12151;SDS011;6139;51.274;7.128;2022-08-21T00:22:29;8.63;;;4.35;;
12151;SDS011;6139;51.274;7.128;2022-08-21T00:23:32;8.35;;;4.70;;
12151;SDS011;6139;51.274;7.128;2022-08-21T00:24:34;7.38;;;3.70;;
12151;SDS011;6139;51.274;7.128;2022-08-21T00:25:36;6.32;;;3.55;;
12151;SDS011;6139;51.274;7.128;2022-08-21T00:26:37;7.28;;;4.32;;
12151;SDS011;6139;51.274;7.128;2022-08-21T00:27:40;7.40;;;4.30;;
12151;SDS011;6139;51.274;7.128;2022-08-21T00:28:42;8.45;;;4.13;;
12151;SDS011;6139;51.274;7.128;2022-08-21T00:29:45;7.97;;;5.00;;
12151;SDS011;6139;51.274;7.128;2022-08-21T00:30:47;9.80;;;5.95;;
12151;SDS011;6139;51.274;7.128;2022-08-21T00:31:49;8.52;;;6.22;;
12151;SDS011;6139;51.274;7.128;2022-08-21T00:32:50;8.40;;;6.70;;
12151;SDS011;6139;51.274;7.128;2022-08-21T00:33:54;11.30;;;7.00;;
12151;SDS011;6139;51.274;7.128;2022-08-21T00:34:55;8.40;;;6.65;;
12151;SDS011;6139;51.274;7.128;2022-08-21T00:35:58;8.68;;;6.70;;
12151;SDS011;6139;51.274;7.128;2022-08-21T00:36:59;7.90;;;6.63;;
12151;SDS011;6139;51.274;7.128;2022-08-21T00:38:02;8.95;;;7.28;;
12151;SDS011;6139;51.274;7.128;2022-08-21T00:39:06;8.23;;;6.68;;
12151;SDS011;6139;51.274;7.128;2022-08-21T00:40:10;11.25;;;6.90;;
12151;SDS011;6139;51.274;7.128;2022-08-21T00:41:14;8.90;;;7.10;;
12151;SDS011;6139;51.274;7.128;2022-08-21T00:42:16;8.20;;;7.03;;
12151;SDS011;6139;51.274;7.128;2022-08-21T00:43:20;10.38;;;7.60;;
12151;SDS011;6139;51.274;7.128;2022-08-21T00:44:23;12.15;;;7.40;;
12151;SDS011;6139;51.274;7.128;2022-08-21T00:45:25;10.27;;;7.30;;
12151;SDS011;6139;51.274;7.128;2022-08-21T00:46:28;8.77;;;6.78;;
12151;SDS011;6139;51.274;7.128;2022-08-21T00:47:29;9.52;;;6.63;;
12151;SDS011;6139;51.274;7.128;2022-08-21T00:48:31;11.10;;;7.00;;
12151;SDS011;6139;51.274;7.128;2022-08-21T00:49:35;12.27;;;7.50;;
12151;SDS011;6139;51.274;7.128;2022-08-21T00:50:40;10.30;;;6.75;;
12151;SDS011;6139;51.274;7.128;2022-08-21T00:51:50;12.70;;;7.47;;
12151;SDS011;6139;51.274;7.128;2022-08-21T00:52:55;13.05;;;6.90;;
12151;SDS011;6139;51.274;7.128;2022-08-21T00:53:58;8.50;;;7.07;;
12151;SDS011;6139;51.274;7.128;2022-08-21T00:55:03;10.00;;;7.55;;
12151;SDS011;6139;51.274;7.128;2022-08-21T00:56:05;11.60;;;7.53;;
12151;SDS011;6139;51.274;7.128;2022-08-21T00:57:10;11.57;;;7.80;;
12151;SDS011;6139;51.274;7.128;2022-08-21T00:58:16;10.07;;;7.18;;
12151;SDS011;6139;51.274;7.128;2022-08-21T00:59:19;10.90;;;7.18;;
12151;SDS011;6139;51.274;7.128;2022-08-21T01:00:23;10.90;;;7.13;;
12151;SDS011;6139;51.274;7.128;2022-08-21T01:01:29;9.55;;;7.30;;
12151;SDS011;6139;51.274;7.128;2022-08-21T01:02:30;10.63;;;7.30;;
12151;SDS011;6139;51.274;7.128;2022-08-21T01:03:33;12.30;;;7.57;;
12151;SDS011;6139;51.274;7.128;2022-08-21T01:04:37;8.90;;;7.00;;
12151;SDS011;6139;51.274;7.128;2022-08-21T01:05:40;8.35;;;6.75;;
12151;SDS011;6139;51.274;7.128;2022-08-21T01:06:41;7.55;;;6.60;;
12151;SDS011;6139;51.274;7.128;2022-08-21T01:07:43;8.57;;;6.30;;
12151;SDS011;6139;51.274;7.128;2022-08-21T01:08:45;10.98;;;6.78;;
12151;SDS011;6139;51.274;7.128;2022-08-21T01:09:48;10.90;;;6.60;;
12151;SDS011;6139;51.274;7.128;2022-08-21T01:10:50;11.73;;;6.90;;
12151;SDS011;6139;51.274;7.128;2022-08-21T01:11:59;8.18;;;6.80;;
12151;SDS011;6139;51.274;7.128;2022-08-21T01:13:00;8.52;;;7.00;;
12151;SDS011;6139;51.274;7.128;2022-08-21T01:14:03;11.70;;;7.05;;
12151;SDS011;6139;51.274;7.128;2022-08-21T01:15:05;11.30;;;7.25;;
12151;SDS011;6139;51.274;7.128;2022-08-21T01:16:09;13.88;;;7.45;;
12151;SDS011;6139;51.274;7.128;2022-08-21T01:17:10;8.70;;;6.80;;
12151;SDS011;6139;51.274;7.128;2022-08-21T01:18:14;11.10;;;6.47;;
12151;SDS011;6139;51.274;7.128;2022-08-21T01:19:17;11.30;;;6.97;;
12151;SDS011;6139;51.274;7.128;2022-08-21T01:20:22;9.93;;;7.07;;
12151;SDS011;6139;51.274;7.128;2022-08-21T01:21:25;13.00;;;7.13;;
12151;SDS011;6139;51.274;7.128;2022-08-21T01:22:28;8.15;;;7.03;;
12151;SDS011;6139;51.274;7.128;2022-08-21T01:23:29;11.65;;;6.82;;
12151;SDS011;6139;51.274;7.128;2022-08-21T01:24:32;9.13;;;6.55;;
12151;SDS011;6139;51.274;7.128;2022-08-21T01:25:33;9.30;;;6.90;;
12151;SDS011;6139;51.274;7.128;2022-08-21T01:26:36;11.25;;;6.72;;
12151;SDS011;6139;51.274;7.128;2022-08-21T01:27:38;11.43;;;7.75;;
12151;SDS011;6139;51.274;7.128;2022-08-21T01:28:42;9.52;;;7.00;;
12151;SDS011;6139;51.274;7.128;2022-08-21T01:29:51;11.50;;;6.53;;
12151;SDS011;6139;51.274;7.128;2022-08-21T01:30:56;9.55;;;7.43;;
12151;SDS011;6139;51.274;7.128;2022-08-21T01:31:58;8.70;;;6.30;;
12151;SDS011;6139;51.274;7.128;2022-08-21T01:33:01;12.38;;;6.13;;
12151;SDS011;6139;51.274;7.128;2022-08-21T01:34:03;8.90;;;6.35;;
12151;SDS011;6139;51.274;7.128;2022-08-21T01:35:06;8.40;;;6.60;;
12151;SDS011;6139;51.274;7.128;2022-08-21T01:36:08;12.02;;;7.32;;
12151;SDS011;6139;51.274;7.128;2022-08-21T01:37:11;10.18;;;7.10;;
12151;SDS011;6139;51.274;7.128;2022-08-21T01:38:13;8.77;;;6.47;;
12151;SDS011;6139;51.274;7.128;2022-08-21T01:39:15;9.07;;;6.80;;
12151;SDS011;6139;51.274;7.128;2022-08-21T01:40:17;9.15;;;7.30;;
12151;SDS011;6139;51.274;7.128;2022-08-21T01:41:19;8.77;;;6.60;;
12151;SDS011;6139;51.274;7.128;2022-08-21T01:42:20;10.80;;;6.47;;
12151;SDS011;6139;51.274;7.128;2022-08-21T01:43:22;9.52;;;6.43;;
12151;SDS011;6139;51.274;7.128;2022-08-21T01:44:24;8.95;;;7.22;;
12151;SDS011;6139;51.274;7.128;2022-08-21T01:45:27;8.63;;;6.93;;
12151;SDS011;6139;51.274;7.128;2022-08-21T01:46:27;10.00;;;7.05;;
12151;SDS011;6139;51.274;7.128;2022-08-21T01:47:30;9.30;;;7.40;;
12151;SDS011;6139;51.274;7.128;2022-08-21T01:48:31;10.77;;;6.90;;
12151;SDS011;6139;51.274;7.128;2022-08-21T01:49:34;9.57;;;7.13;;
12151;SDS011;6139;51.274;7.128;2022-08-21T01:50:35;8.88;;;7.22;;
12151;SDS011;6139;51.274;7.128;2022-08-21T01:51:37;9.15;;;7.07;;
12151;SDS011;6139;51.274;7.128;2022-08-21T01:52:40;8.00;;;6.35;;
12151;SDS011;6139;51.274;7.128;2022-08-21T01:53:42;9.40;;;6.57;;
12151;SDS011;6139;51.274;7.128;2022-08-21T01:54:43;10.40;;;6.65;;
12151;SDS011;6139;51.274;7.128;2022-08-21T01:55:45;9.75;;;6.90;;
12151;SDS011;6139;51.274;7.128;2022-08-21T01:56:47;11.10;;;7.47;;
12151;SDS011;6139;51.274;7.128;2022-08-21T01:57:52;12.52;;;7.38;;
12151;SDS011;6139;51.274;7.128;2022-08-21T01:58:53;9.70;;;7.05;;
12151;SDS011;6139;51.274;7.128;2022-08-21T01:59:55;11.23;;;7.15;;
12151;SDS011;6139;51.274;7.128;2022-08-21T02:00:56;10.25;;;7.60;;
12151;SDS011;6139;51.274;7.128;2022-08-21T02:01:57;8.18;;;6.82;;
12151;SDS011;6139;51.274;7.128;2022-08-21T02:02:59;8.55;;;6.78;;
12151;SDS011;6139;51.274;7.128;2022-08-21T02:04:01;12.35;;;7.88;;
12151;SDS011;6139;51.274;7.128;2022-08-21T02:05:03;8.07;;;6.85;;
12151;SDS011;6139;51.274;7.128;2022-08-21T02:06:07;9.93;;;7.38;;
12151;SDS011;6139;51.274;7.128;2022-08-21T02:07:12;11.48;;;7.13;;
12151;SDS011;6139;51.274;7.128;2022-08-21T02:08:16;8.63;;;7.60;;
12151;SDS011;6139;51.274;7.128;2022-08-21T02:09:18;10.70;;;7.47;;
12151;SDS011;6139;51.274;7.128;2022-08-21T02:10:24;11.60;;;7.68;;
12151;SDS011;6139;51.274;7.128;2022-08-21T02:11:27;8.73;;;7.15;;
12151;SDS011;6139;51.274;7.128;2022-08-21T02:12:29;9.05;;;6.57;;
12151;SDS011;6139;51.274;7.128;2022-08-21T02:13:31;10.50;;;7.60;;
12151;SDS011;6139;51.274;7.128;2022-08-21T02:14:33;7.93;;;6.47;;
12151;SDS011;6139;51.274;7.128;2022-08-21T02:15:34;7.28;;;6.57;;
12151;SDS011;6139;51.274;7.128;2022-08-21T02:16:36;9.65;;;7.07;;
12151;SDS011;6139;51.274;7.128;2022-08-21T02:17:39;8.18;;;6.38;;
12151;SDS011;6139;51.274;7.128;2022-08-21T02:18:42;8.30;;;6.68;;
12151;SDS011;6139;51.274;7.128;2022-08-21T02:19:43;9.70;;;6.88;;
12151;SDS011;6139;51.274;7.128;2022-08-21T02:20:47;11.80;;;6.93;;
12151;SDS011;6139;51.274;7.128;2022-08-21T02:21:49;9.25;;;6.80;;
12151;SDS011;6139;51.274;7.128;2022-08-21T02:22:51;8.70;;;6.40;;
12151;SDS011;6139;51.274;7.128;2022-08-21T02:23:55;8.20;;;7.07;;
12151;SDS011;6139;51.274;7.128;2022-08-21T02:24:57;7.50;;;6.70;;
12151;SDS011;6139;51.274;7.128;2022-08-21T02:25:58;8.82;;;7.25;;
12151;SDS011;6139;51.274;7.128;2022-08-21T02:27:01;9.15;;;6.85;;
12151;SDS011;6139;51.274;7.128;2022-08-21T02:28:03;11.27;;;7.10;;
12151;SDS011;6139;51.274;7.128;2022-08-21T02:29:07;10.40;;;7.40;;
12151;SDS011;6139;51.274;7.128;2022-08-21T02:30:10;9.90;;;6.55;;
12151;SDS011;6139;51.274;7.128;2022-08-21T02:31:13;9.23;;;6.47;;
12151;SDS011;6139;51.274;7.128;2022-08-21T02:32:15;10.13;;;6.80;;
12151;SDS011;6139;51.274;7.128;2022-08-21T02:33:17;8.32;;;7.40;;
12151;SDS011;6139;51.274;7.128;2022-08-21T02:34:18;8.27;;;6.85;;
12151;SDS011;6139;51.274;7.128;2022-08-21T02:35:21;9.20;;;7.22;;
12151;SDS011;6139;51.274;7.128;2022-08-21T02:36:23;9.60;;;6.20;;
12151;SDS011;6139;51.274;7.128;2022-08-21T02:37:25;10.90;;;7.45;;
12151;SDS011;6139;51.274;7.128;2022-08-21T02:38:28;11.88;;;7.65;;
12151;SDS011;6139;51.274;7.128;2022-08-21T02:39:36;11.55;;;7.43;;
12151;SDS011;6139;51.274;7.128;2022-08-21T02:40:38;11.70;;;7.90;;
12151;SDS011;6139;51.274;7.128;2022-08-21T02:41:41;11.77;;;8.68;;
12151;SDS011;6139;51.274;7.128;2022-08-21T02:42:43;9.93;;;7.35;;
12151;SDS011;6139;51.274;7.128;2022-08-21T02:43:45;10.32;;;7.43;;
12151;SDS011;6139;51.274;7.128;2022-08-21T02:44:47;8.82;;;7.05;;
12151;SDS011;6139;51.274;7.128;2022-08-21T02:45:49;9.57;;;6.60;;
12151;SDS011;6139;51.274;7.128;2022-08-21T02:46:51;10.45;;;7.60;;
12151;SDS011;6139;51.274;7.128;2022-08-21T02:47:53;9.55;;;7.20;;
12151;SDS011;6139;51.274;7.128;2022-08-21T02:48:57;10.77;;;7.55;;
12151;SDS011;6139;51.274;7.128;2022-08-21T02:49:58;10.40;;;7.72;;
12151;SDS011;6139;51.274;7.128;2022-08-21T02:51:01;10.18;;;7.32;;
12151;SDS011;6139;51.274;7.128;2022-08-21T02:52:05;9.75;;;7.82;;
12151;SDS011;6139;51.274;7.128;2022-08-21T02:53:08;11.90;;;8.23;;
12151;SDS011;6139;51.274;7.128;2022-08-21T02:54:10;9.00;;;7.45;;
12151;SDS011;6139;51.274;7.128;2022-08-21T02:55:14;12.02;;;7.65;;
12151;SDS011;6139;51.274;7.128;2022-08-21T02:56:17;9.10;;;8.13;;
12151;SDS011;6139;51.274;7.128;2022-08-21T02:57:20;9.98;;;8.13;;
12151;SDS011;6139;51.274;7.128;2022-08-21T02:58:23;10.30;;;8.35;;
12151;SDS011;6139;51.274;7.128;2022-08-21T02:59:27;13.18;;;8.38;;
12151;SDS011;6139;51.274;7.128;2022-08-21T03:00:29;10.60;;;7.93;;
12151;SDS011;6139;51.274;7.128;2022-08-21T03:01:32;8.20;;;7.35;;
12151;SDS011;6139;51.274;7.128;2022-08-21T03:02:33;12.57;;;7.47;;
12151;SDS011;6139;51.274;7.128;2022-08-21T03:03:35;11.43;;;7.78;;
12151;SDS011;6139;51.274;7.128;2022-08-21T03:04:37;10.98;;;7.20;;
12151;SDS011;6139;51.274;7.128;2022-08-21T03:05:39;12.38;;;7.10;;
12151;SDS011;6139;51.274;7.128;2022-08-21T03:06:40;11.32;;;7.10;;
12151;SDS011;6139;51.274;7.128;2022-08-21T03:07:43;15.07;;;8.45;;
12151;SDS011;6139;51.274;7.128;2022-08-21T03:08:45;10.18;;;6.80;;
12151;SDS011;6139;51.274;7.128;2022-08-21T03:09:47;10.35;;;7.47;;
12151;SDS011;6139;51.274;7.128;2022-08-21T03:10:50;11.18;;;7.03;;
12151;SDS011;6139;51.274;7.128;2022-08-21T03:11:53;10.35;;;6.38;;
12151;SDS011;6139;51.274;7.128;2022-08-21T03:12:54;8.60;;;6.85;;
12151;SDS011;6139;51.274;7.128;2022-08-21T03:13:56;11.30;;;6.95;;
12151;SDS011;6139;51.274;7.128;2022-08-21T03:14:57;9.95;;;7.32;;
12151;SDS011;6139;51.274;7.128;2022-08-21T03:16:00;8.85;;;6.65;;
12151;SDS011;6139;51.274;7.128;2022-08-21T03:17:01;9.85;;;6.63;;
12151;SDS011;6139;51.274;7.128;2022-08-21T03:18:03;10.07;;;6.95;;
12151;SDS011;6139;51.274;7.128;2022-08-21T03:19:05;12.63;;;7.40;;
12151;SDS011;6139;51.274;7.128;2022-08-21T03:20:07;12.65;;;6.90;;
12151;SDS011;6139;51.274;7.128;2022-08-21T03:21:09;9.13;;;7.00;;
12151;SDS011;6139;51.274;7.128;2022-08-21T03:22:13;8.93;;;6.45;;
12151;SDS011;6139;51.274;7.128;2022-08-21T03:23:14;9.30;;;7.32;;
12151;SDS011;6139;51.274;7.128;2022-08-21T03:24:18;10.05;;;7.20;;
12151;SDS011;6139;51.274;7.128;2022-08-21T03:25:19;9.65;;;6.25;;
12151;SDS011;6139;51.274;7.128;2022-08-21T03:26:24;7.32;;;6.63;;
12151;SDS011;6139;51.274;7.128;2022-08-21T03:27:25;7.25;;;6.18;;
12151;SDS011;6139;51.274;7.128;2022-08-21T03:28:28;8.80;;;6.53;;
12151;SDS011;6139;51.274;7.128;2022-08-21T03:29:29;8.88;;;6.40;;
12151;SDS011;6139;51.274;7.128;2022-08-21T03:30:31;9.32;;;6.63;;
12151;SDS011;6139;51.274;7.128;2022-08-21T03:31:32;8.02;;;6.50;;
12151;SDS011;6139;51.274;7.128;2022-08-21T03:32:34;8.25;;;6.03;;
12151;SDS011;6139;51.274;7.128;2022-08-21T03:33:36;9.63;;;7.00;;
12151;SDS011;6139;51.274;7.128;2022-08-21T03:34:38;8.45;;;6.32;;
12151;SDS011;6139;51.274;7.128;2022-08-21T03:35:39;8.77;;;6.68;;
12151;SDS011;6139;51.274;7.128;2022-08-21T03:36:43;8.32;;;6.47;;
12151;SDS011;6139;51.274;7.128;2022-08-21T03:37:45;14.50;;;7.38;;
12151;SDS011;6139;51.274;7.128;2022-08-21T03:38:47;7.07;;;6.20;;
12151;SDS011;6139;51.274;7.128;2022-08-21T03:39:49;8.25;;;6.00;;
12151;SDS011;6139;51.274;7.128;2022-08-21T03:40:50;8.88;;;6.35;;
12151;SDS011;6139;51.274;7.128;2022-08-21T03:41:54;8.68;;;6.10;;
12151;SDS011;6139;51.274;7.128;2022-08-21T03:42:55;8.52;;;5.90;;
12151;SDS011;6139;51.274;7.128;2022-08-21T03:43:57;9.65;;;6.60;;
12151;SDS011;6139;51.274;7.128;2022-08-21T03:44:59;8.43;;;5.28;;
12151;SDS011;6139;51.274;7.128;2022-08-21T03:46:02;7.50;;;5.93;;
12151;SDS011;6139;51.274;7.128;2022-08-21T03:47:05;12.50;;;6.22;;
12151;SDS011;6139;51.274;7.128;2022-08-21T03:48:08;9.27;;;6.03;;
12151;SDS011;6139;51.274;7.128;2022-08-21T03:49:09;7.85;;;5.90;;
12151;SDS011;6139;51.274;7.128;2022-08-21T03:50:12;11.23;;;6.72;;
12151;SDS011;6139;51.274;7.128;2022-08-21T03:51:13;8.73;;;6.57;;
12151;SDS011;6139;51.274;7.128;2022-08-21T03:52:16;9.30;;;6.50;;
12151;SDS011;6139;51.274;7.128;2022-08-21T03:53:17;11.50;;;6.60;;
12151;SDS011;6139;51.274;7.128;2022-08-21T03:54:19;8.90;;;6.63;;
12151;SDS011;6139;51.274;7.128;2022-08-21T03:55:22;10.30;;;6.53;;
12151;SDS011;6139;51.274;7.128;2022-08-21T03:56:25;8.45;;;6.43;;
12151;SDS011;6139;51.274;7.128;2022-08-21T03:57:27;7.85;;;6.38;;
12151;SDS011;6139;51.274;7.128;2022-08-21T03:58:30;9.60;;;6.60;;
12151;SDS011;6139;51.274;7.128;2022-08-21T03:59:31;9.70;;;7.13;;
12151;SDS011;6139;51.274;7.128;2022-08-21T04:00:33;8.40;;;6.78;;
12151;SDS011;6139;51.274;7.128;2022-08-21T04:01:34;8.48;;;7.03;;
12151;SDS011;6139;51.274;7.128;2022-08-21T04:02:36;11.82;;;6.82;;
12151;SDS011;6139;51.274;7.128;2022-08-21T04:03:37;9.60;;;6.85;;
12151;SDS011;6139;51.274;7.128;2022-08-21T04:04:39;10.85;;;7.43;;
12151;SDS011;6139;51.274;7.128;2022-08-21T04:05:40;9.98;;;6.95;;
12151;SDS011;6139;51.274;7.128;2022-08-21T04:06:43;8.48;;;6.65;;
12151;SDS011;6139;51.274;7.128;2022-08-21T04:07:44;8.23;;;6.95;;
12151;SDS011;6139;51.274;7.128;2022-08-21T04:08:46;9.80;;;6.68;;
12151;SDS011;6139;51.274;7.128;2022-08-21T04:09:49;12.73;;;6.50;;
12151;SDS011;6139;51.274;7.128;2022-08-21T04:10:51;8.85;;;6.82;;
12151;SDS011;6139;51.274;7.128;2022-08-21T04:11:55;9.40;;;6.45;;
12151;SDS011;6139;51.274;7.128;2022-08-21T04:12:58;8.68;;;6.57;;
12151;SDS011;6139;51.274;7.128;2022-08-21T04:14:00;11.70;;;7.05;;
12151;SDS011;6139;51.274;7.128;2022-08-21T04:15:02;10.25;;;6.82;;
12151;SDS011;6139;51.274;7.128;2022-08-21T04:16:04;11.77;;;7.57;;
12151;SDS011;6139;51.274;7.128;2022-08-21T04:17:07;13.93;;;7.00;;
12151;SDS011;6139;51.274;7.128;2022-08-21T04:18:09;8.35;;;6.78;;
12151;SDS011;6139;51.274;7.128;2022-08-21T04:19:12;7.63;;;6.43;;
12151;SDS011;6139;51.274;7.128;2022-08-21T04:20:13;8.27;;;6.55;;
12151;SDS011;6139;51.274;7.128;2022-08-21T04:21:16;11.40;;;6.95;;
12151;SDS011;6139;51.274;7.128;2022-08-21T04:22:17;8.75;;;6.93;;
12151;SDS011;6139;51.274;7.128;2022-08-21T04:23:20;10.68;;;6.35;;
12151;SDS011;6139;51.274;7.128;2022-08-21T04:24:21;9.52;;;6.78;;
12151;SDS011;6139;51.274;7.128;2022-08-21T04:25:23;8.48;;;6.55;;
12151;SDS011;6139;51.274;7.128;2022-08-21T04:26:25;8.52;;;6.68;;
12151;SDS011;6139;51.274;7.128;2022-08-21T04:27:28;7.95;;;6.93;;
12151;SDS011;6139;51.274;7.128;2022-08-21T04:28:30;9.23;;;6.72;;
12151;SDS011;6139;51.274;7.128;2022-08-21T04:29:32;9.48;;;7.20;;
12151;SDS011;6139;51.274;7.128;2022-08-21T04:30:33;10.02;;;7.25;;
12151;SDS011;6139;51.274;7.128;2022-08-21T04:31:36;11.43;;;7.40;;
12151;SDS011;6139;51.274;7.128;2022-08-21T04:32:37;8.85;;;7.35;;
12151;SDS011;6139;51.274;7.128;2022-08-21T04:33:40;10.57;;;6.85;;
12151;SDS011;6139;51.274;7.128;2022-08-21T04:34:41;7.65;;;6.80;;
12151;SDS011;6139;51.274;7.128;2022-08-21T04:35:43;9.07;;;6.90;;
12151;SDS011;6139;51.274;7.128;2022-08-21T04:36:44;8.80;;;6.82;;
12151;SDS011;6139;51.274;7.128;2022-08-21T04:37:46;10.30;;;7.38;;
12151;SDS011;6139;51.274;7.128;2022-08-21T04:38:48;10.02;;;7.35;;
12151;SDS011;6139;51.274;7.128;2022-08-21T04:39:50;8.85;;;7.55;;
12151;SDS011;6139;51.274;7.128;2022-08-21T04:40:51;9.63;;;7.75;;
12151;SDS011;6139;51.274;7.128;2022-08-21T04:41:54;9.88;;;7.50;;
12151;SDS011;6139;51.274;7.128;2022-08-21T04:42:56;10.05;;;7.65;;
12151;SDS011;6139;51.274;7.128;2022-08-21T04:44:01;8.73;;;6.75;;
12151;SDS011;6139;51.274;7.128;2022-08-21T04:45:03;9.57;;;7.40;;
12151;SDS011;6139;51.274;7.128;2022-08-21T04:46:06;8.57;;;6.93;;
12151;SDS011;6139;51.274;7.128;2022-08-21T04:47:07;9.93;;;7.22;;
12151;SDS011;6139;51.274;7.128;2022-08-21T04:48:10;11.05;;;7.22;;
12151;SDS011;6139;51.274;7.128;2022-08-21T04:49:14;9.25;;;6.78;;
12151;SDS011;6139;51.274;7.128;2022-08-21T04:50:15;10.38;;;7.25;;
12151;SDS011;6139;51.274;7.128;2022-08-21T04:51:29;10.13;;;6.82;;
12151;SDS011;6139;51.274;7.128;2022-08-21T04:52:36;7.82;;;6.88;;
12151;SDS011;6139;51.274;7.128;2022-08-21T04:53:38;8.25;;;6.47;;
12151;SDS011;6139;51.274;7.128;2022-08-21T04:54:43;13.95;;;7.40;;
12151;SDS011;6139;51.274;7.128;2022-08-21T04:55:46;10.90;;;6.60;;
12151;SDS011;6139;51.274;7.128;2022-08-21T04:56:49;9.25;;;6.55;;
12151;SDS011;6139;51.274;7.128;2022-08-21T04:57:53;8.73;;;6.57;;
12151;SDS011;6139;51.274;7.128;2022-08-21T04:58:57;8.13;;;6.53;;
12151;SDS011;6139;51.274;7.128;2022-08-21T05:00:05;12.57;;;7.82;;
12151;SDS011;6139;51.274;7.128;2022-08-21T05:01:09;7.90;;;7.10;;
12151;SDS011;6139;51.274;7.128;2022-08-21T05:02:21;8.82;;;7.05;;
12151;SDS011;6139;51.274;7.128;2022-08-21T05:03:23;11.05;;;7.32;;
12151;SDS011;6139;51.274;7.128;2022-08-21T05:04:26;12.88;;;7.55;;
12151;SDS011;6139;51.274;7.128;2022-08-21T05:05:31;8.88;;;6.93;;
12151;SDS011;6139;51.274;7.128;2022-08-21T05:06:33;8.10;;;6.93;;
12151;SDS011;6139;51.274;7.128;2022-08-21T05:07:38;12.57;;;7.78;;
12151;SDS011;6139;51.274;7.128;2022-08-21T05:08:39;9.48;;;7.75;;
12151;SDS011;6139;51.274;7.128;2022-08-21T05:09:43;10.38;;;7.90;;
12151;SDS011;6139;51.274;7.128;2022-08-21T05:10:45;9.48;;;7.93;;
12151;SDS011;6139;51.274;7.128;2022-08-21T05:11:48;9.18;;;7.70;;
12151;SDS011;6139;51.274;7.128;2022-08-21T05:12:49;9.40;;;7.80;;
12151;SDS011;6139;51.274;7.128;2022-08-21T05:13:51;13.70;;;7.53;;
12151;SDS011;6139;51.274;7.128;2022-08-21T05:14:52;12.55;;;8.18;;
12151;SDS011;6139;51.274;7.128;2022-08-21T05:15:55;10.95;;;7.68;;
12151;SDS011;6139;51.274;7.128;2022-08-21T05:16:57;10.70;;;7.82;;
12151;SDS011;6139;51.274;7.128;2022-08-21T05:17:59;10.27;;;8.15;;
12151;SDS011;6139;51.274;7.128;2022-08-21T05:19:00;8.75;;;7.60;;
12151;SDS011;6139;51.274;7.128;2022-08-21T05:20:02;9.13;;;7.38;;
12151;SDS011;6139;51.274;7.128;2022-08-21T05:21:04;10.18;;;7.70;;
12151;SDS011;6139;51.274;7.128;2022-08-21T05:22:06;10.73;;;7.53;;
12151;SDS011;6139;51.274;7.128;2022-08-21T05:23:08;9.63;;;7.75;;
12151;SDS011;6139;51.274;7.128;2022-08-21T05:24:11;9.85;;;8.13;;
12151;SDS011;6139;51.274;7.128;2022-08-21T05:25:13;11.98;;;8.63;;
12151;SDS011;6139;51.274;7.128;2022-08-21T05:26:15;12.30;;;9.13;;
12151;SDS011;6139;51.274;7.128;2022-08-21T05:27:16;14.00;;;8.73;;
12151;SDS011;6139;51.274;7.128;2022-08-21T05:28:19;11.95;;;8.55;;
12151;SDS011;6139;51.274;7.128;2022-08-21T05:29:19;9.88;;;8.23;;
12151;SDS011;6139;51.274;7.128;2022-08-21T05:30:23;12.73;;;8.95;;
12151;SDS011;6139;51.274;7.128;2022-08-21T05:31:25;11.27;;;8.57;;
12151;SDS011;6139;51.274;7.128;2022-08-21T05:32:27;14.13;;;10.15;;
12151;SDS011;6139;51.274;7.128;2022-08-21T05:33:29;14.80;;;9.82;;
12151;SDS011;6139;51.274;7.128;2022-08-21T05:34:31;13.98;;;9.40;;
12151;SDS011;6139;51.274;7.128;2022-08-21T05:35:32;13.35;;;9.75;;
12151;SDS011;6139;51.274;7.128;2022-08-21T05:36:34;10.70;;;9.40;;
12151;SDS011;6139;51.274;7.128;2022-08-21T05:37:35;12.05;;;9.30;;
12151;SDS011;6139;51.274;7.128;2022-08-21T05:38:37;14.50;;;10.73;;
12151;SDS011;6139;51.274;7.128;2022-08-21T05:39:39;13.88;;;10.18;;
12151;SDS011;6139;51.274;7.128;2022-08-21T05:40:42;12.00;;;9.60;;
12151;SDS011;6139;51.274;7.128;2022-08-21T05:41:43;16.10;;;11.43;;
12151;SDS011;6139;51.274;7.128;2022-08-21T05:42:45;14.45;;;10.13;;
12151;SDS011;6139;51.274;7.128;2022-08-21T05:43:46;14.23;;;10.32;;
12151;SDS011;6139;51.274;7.128;2022-08-21T05:44:49;13.07;;;10.57;;
12151;SDS011;6139;51.274;7.128;2022-08-21T05:45:50;14.90;;;10.55;;
12151;SDS011;6139;51.274;7.128;2022-08-21T05:46:53;13.95;;;10.88;;
12151;SDS011;6139;51.274;7.128;2022-08-21T05:47:54;15.13;;;10.98;;
12151;SDS011;6139;51.274;7.128;2022-08-21T05:48:56;12.15;;;9.88;;
12151;SDS011;6139;51.274;7.128;2022-08-21T05:49:57;12.73;;;10.55;;
12151;SDS011;6139;51.274;7.128;2022-08-21T05:51:03;11.43;;;10.18;;
12151;SDS011;6139;51.274;7.128;2022-08-21T05:52:06;11.60;;;10.13;;
12151;SDS011;6139;51.274;7.128;2022-08-21T05:53:09;12.65;;;9.50;;
12151;SDS011;6139;51.274;7.128;2022-08-21T05:54:10;12.40;;;10.10;;
12151;SDS011;6139;51.274;7.128;2022-08-21T05:55:13;15.25;;;10.30;;
12151;SDS011;6139;51.274;7.128;2022-08-21T05:56:14;13.10;;;10.25;;
12151;SDS011;6139;51.274;7.128;2022-08-21T05:57:16;11.90;;;10.60;;
12151;SDS011;6139;51.274;7.128;2022-08-21T05:58:18;13.70;;;10.73;;
12151;SDS011;6139;51.274;7.128;2022-08-21T05:59:21;13.30;;;11.50;;
12151;SDS011;6139;51.274;7.128;2022-08-21T06:00:23;12.52;;;11.05;;
12151;SDS011;6139;51.274;7.128;2022-08-21T06:01:25;13.27;;;10.75;;
12151;SDS011;6139;51.274;7.128;2022-08-21T06:02:27;11.98;;;10.15;;
12151;SDS011;6139;51.274;7.128;2022-08-21T06:03:31;13.13;;;10.13;;
12151;SDS011;6139;51.274;7.128;2022-08-21T06:04:35;14.73;;;11.02;;
12151;SDS011;6139;51.274;7.128;2022-08-21T06:05:38;12.50;;;10.60;;
12151;SDS011;6139;51.274;7.128;2022-08-21T06:06:39;11.90;;;9.57;;
12151;SDS011;6139;51.274;7.128;2022-08-21T06:07:41;13.85;;;10.20;;
12151;SDS011;6139;51.274;7.128;2022-08-21T06:08:42;14.68;;;10.80;;
12151;SDS011;6139;51.274;7.128;2022-08-21T06:09:44;14.95;;;12.07;;
12151;SDS011;6139;51.274;7.128;2022-08-21T06:10:46;13.55;;;12.15;;
12151;SDS011;6139;51.274;7.128;2022-08-21T06:11:49;15.55;;;11.55;;
12151;SDS011;6139;51.274;7.128;2022-08-21T06:12:52;15.18;;;11.23;;
12151;SDS011;6139;51.274;7.128;2022-08-21T06:13:54;13.18;;;11.43;;
12151;SDS011;6139;51.274;7.128;2022-08-21T06:14:56;15.48;;;11.90;;
12151;SDS011;6139;51.274;7.128;2022-08-21T06:16:01;13.43;;;11.27;;
12151;SDS011;6139;51.274;7.128;2022-08-21T06:17:07;13.77;;;12.25;;
12151;SDS011;6139;51.274;7.128;2022-08-21T06:18:13;13.38;;;11.30;;
12151;SDS011;6139;51.274;7.128;2022-08-21T06:19:15;13.65;;;11.05;;